createdAt,value
2018-10-05T00:00:27.786Z,1017.64
2018-10-05T00:01:27.804Z,1017.67
2018-10-05T00:02:27.822Z,1017.66
2018-10-05T00:03:27.840Z,1017.59
2018-10-05T00:04:27.859Z,1017.59
2018-10-05T00:05:27.878Z,1017.58
2018-10-05T00:06:27.896Z,1017.56
2018-10-05T00:07:27.913Z,1017.59
2018-10-05T00:08:27.932Z,1017.51
2018-10-05T00:09:27.951Z,1017.54
2018-10-05T00:10:27.991Z,1017.50
2018-10-05T00:11:27.987Z,1017.49
2018-10-05T00:12:28.005Z,1017.48
2018-10-05T00:13:28.025Z,1017.50
2018-10-05T00:14:28.040Z,1017.49
2018-10-05T00:15:28.060Z,1017.51
2018-10-05T00:16:28.078Z,1017.49
2018-10-05T00:17:28.099Z,1017.47
2018-10-05T00:18:28.114Z,1017.53
2018-10-05T00:19:28.132Z,1017.50
2018-10-05T00:20:28.180Z,1017.54
2018-10-05T00:21:28.171Z,1017.57
2018-10-05T00:22:28.186Z,1017.52
2018-10-05T00:23:28.204Z,1017.56
2018-10-05T00:24:28.223Z,1017.58
2018-10-05T00:25:28.241Z,1017.59
2018-10-05T00:26:28.259Z,1017.63
2018-10-05T00:27:28.276Z,1017.55
2018-10-05T00:28:28.296Z,1017.59
2018-10-05T00:29:28.313Z,1017.56
2018-10-05T00:30:28.331Z,1017.55
2018-10-05T00:31:28.350Z,1017.55
2018-10-05T00:32:28.391Z,1017.51
2018-10-05T00:33:28.387Z,1017.52
2018-10-05T00:34:28.404Z,1017.52
2018-10-05T00:35:28.422Z,1017.50
2018-10-05T00:36:28.440Z,1017.47
2018-10-05T00:37:28.459Z,1017.45
2018-10-05T00:38:28.476Z,1017.45
2018-10-05T00:39:28.494Z,1017.45
2018-10-05T00:40:28.513Z,1017.48
2018-10-05T00:41:28.532Z,1017.44
2018-10-05T00:42:28.549Z,1017.41
2018-10-05T00:43:28.567Z,1017.36
2018-10-05T00:44:28.585Z,1017.39
2018-10-05T00:45:28.604Z,1017.36
2018-10-05T00:46:28.621Z,1017.40
2018-10-05T00:47:28.639Z,1017.36
2018-10-05T00:48:28.658Z,1017.32
2018-10-05T00:49:28.678Z,1017.32
2018-10-05T00:50:28.694Z,1017.32
2018-10-05T00:51:28.712Z,1017.30
2018-10-05T00:52:28.731Z,1017.30
2018-10-05T00:53:28.816Z,1017.31
2018-10-05T00:54:28.767Z,1017.30
2018-10-05T00:55:28.786Z,1017.27
2018-10-05T00:56:28.803Z,1017.29
2018-10-05T00:57:28.822Z,1017.27
2018-10-05T00:58:28.839Z,1017.24
2018-10-05T00:59:28.857Z,1017.27
2018-10-05T01:00:28.876Z,1017.22
2018-10-05T01:01:28.895Z,1017.21
2018-10-05T01:02:28.912Z,1017.23
2018-10-05T01:03:28.930Z,1017.23
2018-10-05T01:04:28.949Z,1017.19
2018-10-05T01:05:28.967Z,1017.17
2018-10-05T01:06:28.985Z,1017.14
2018-10-05T01:07:29.004Z,1017.11
2018-10-05T01:08:29.021Z,1017.11
2018-10-05T01:09:29.039Z,1017.08
2018-10-05T01:10:29.057Z,1017.06
2018-10-05T01:11:29.096Z,1017.05
2018-10-05T01:12:29.093Z,1017.07
2018-10-05T01:13:29.112Z,1017.09
2018-10-05T01:14:29.129Z,1017.07
2018-10-05T01:15:29.149Z,1017.06
2018-10-05T01:16:29.167Z,1017.05
2018-10-05T01:17:29.184Z,1017.04
2018-10-05T01:18:29.203Z,1017.04
2018-10-05T01:19:29.219Z,1017.01
2018-10-05T01:20:29.238Z,1017.00
2018-10-05T01:21:29.257Z,1016.99
2018-10-05T01:22:29.274Z,1016.99
2018-10-05T01:23:29.292Z,1016.97
2018-10-05T01:24:29.312Z,1016.99
2018-10-05T01:25:29.328Z,1016.98
2018-10-05T01:26:29.345Z,1016.98
2018-10-05T01:27:29.364Z,1016.94
2018-10-05T01:28:29.382Z,1016.94
2018-10-05T01:29:29.400Z,1016.93
2018-10-05T01:30:29.418Z,1016.89
2018-10-05T01:31:29.437Z,1016.90
2018-10-05T01:32:29.455Z,1016.88
2018-10-05T01:33:29.473Z,1016.84
2018-10-05T01:34:29.488Z,1016.83
2018-10-05T01:35:29.508Z,1016.87
2018-10-05T01:36:29.527Z,1016.84
2018-10-05T01:37:29.544Z,1016.87
2018-10-05T01:38:29.562Z,1016.87
2018-10-05T01:39:29.580Z,1016.85
2018-10-05T01:40:29.598Z,1016.84
2018-10-05T01:41:29.616Z,1016.88
2018-10-05T01:42:29.634Z,1016.88
2018-10-05T01:43:29.658Z,1016.87
2018-10-05T01:44:29.671Z,1016.86
2018-10-05T01:45:29.689Z,1016.89
2018-10-05T01:46:29.706Z,1016.86
2018-10-05T01:47:29.724Z,1016.84
2018-10-05T01:48:29.746Z,1016.85
2018-10-05T01:49:29.760Z,1016.85
2018-10-05T01:50:29.777Z,1016.81
2018-10-05T01:51:29.796Z,1016.80
2018-10-05T01:52:29.813Z,1016.85
2018-10-05T01:53:29.841Z,1016.80
2018-10-05T01:54:29.849Z,1016.80
2018-10-05T01:55:29.867Z,1016.77
2018-10-05T01:56:29.885Z,1016.78
2018-10-05T01:57:29.903Z,1016.76
2018-10-05T01:58:29.970Z,1016.75
2018-10-05T01:59:29.942Z,1016.75
2018-10-05T02:00:29.957Z,1016.76
2018-10-05T02:01:29.975Z,1016.71
2018-10-05T02:02:30.054Z,1016.70
2018-10-05T02:03:30.011Z,1016.74
2018-10-05T02:04:30.029Z,1016.70
2018-10-05T02:05:30.047Z,1016.71
2018-10-05T02:06:30.070Z,1016.69
2018-10-05T02:07:30.082Z,1016.67
2018-10-05T02:08:30.102Z,1016.70
2018-10-05T02:09:30.118Z,1016.67
2018-10-05T02:10:30.136Z,1016.69
2018-10-05T02:11:30.153Z,1016.68
2018-10-05T02:12:30.170Z,1016.68
2018-10-05T02:13:30.190Z,1016.68
2018-10-05T02:14:30.206Z,1016.67
2018-10-05T02:15:30.224Z,1016.71
2018-10-05T02:16:30.242Z,1016.67
2018-10-05T02:17:30.261Z,1016.62
2018-10-05T02:18:30.278Z,1016.64
2018-10-05T02:19:30.299Z,1016.61
2018-10-05T02:20:30.313Z,1016.62
2018-10-05T02:21:30.331Z,1016.62
2018-10-05T02:22:30.349Z,1016.58
2018-10-05T02:23:30.367Z,1016.55
2018-10-05T02:24:30.385Z,1016.53
2018-10-05T02:25:30.403Z,1016.53
2018-10-05T02:26:30.420Z,1016.54
2018-10-05T02:27:30.462Z,1016.56
2018-10-05T02:28:30.456Z,1016.55
2018-10-05T02:29:30.474Z,1016.56
2018-10-05T02:30:30.495Z,1016.52
2018-10-05T02:31:30.513Z,1016.52
2018-10-05T02:32:30.541Z,1016.50
2018-10-05T02:33:30.546Z,1016.47
2018-10-05T02:34:30.562Z,1016.47
2018-10-05T02:35:30.581Z,1016.45
2018-10-05T02:36:30.598Z,1016.45
2018-10-05T02:37:30.617Z,1016.45
2018-10-05T02:38:30.646Z,1016.43
2018-10-05T02:39:30.651Z,1016.43
2018-10-05T02:40:30.669Z,1016.45
2018-10-05T02:41:30.721Z,1016.42
2018-10-05T02:42:30.705Z,1016.41
2018-10-05T02:43:30.727Z,1016.43
2018-10-05T02:44:30.741Z,1016.42
2018-10-05T02:45:30.758Z,1016.40
2018-10-05T02:46:30.784Z,1016.38
2018-10-05T02:47:30.794Z,1016.39
2018-10-05T02:48:30.812Z,1016.35
2018-10-05T02:49:30.832Z,1016.41
2018-10-05T02:50:30.850Z,1016.37
2018-10-05T02:51:30.876Z,1016.40
2018-10-05T02:52:30.889Z,1016.37
2018-10-05T02:53:30.900Z,1016.37
2018-10-05T02:54:30.919Z,1016.39
2018-10-05T02:55:30.936Z,1016.39
2018-10-05T02:56:30.954Z,1016.38
2018-10-05T02:57:30.972Z,1016.36
2018-10-05T02:58:30.989Z,1016.36
2018-10-05T02:59:31.007Z,1016.33
2018-10-05T03:00:31.024Z,1016.29
2018-10-05T03:01:31.043Z,1016.30
2018-10-05T03:02:31.060Z,1016.32
2018-10-05T03:03:31.078Z,1016.28
2018-10-05T03:04:31.096Z,1016.30
2018-10-05T03:05:31.117Z,1016.27
2018-10-05T03:06:31.130Z,1016.29
2018-10-05T03:07:31.148Z,1016.25
2018-10-05T03:08:31.166Z,1016.28
2018-10-05T03:09:31.184Z,1016.26
2018-10-05T03:10:31.205Z,1016.22
2018-10-05T03:11:31.220Z,1016.24
2018-10-05T03:12:31.237Z,1016.26
2018-10-05T03:13:31.255Z,1016.19
2018-10-05T03:14:31.272Z,1016.25
2018-10-05T03:15:31.290Z,1016.19
2018-10-05T03:16:31.308Z,1016.19
2018-10-05T03:17:31.330Z,1016.23
2018-10-05T03:18:31.342Z,1016.19
2018-10-05T03:19:31.361Z,1016.17
2018-10-05T03:20:31.382Z,1016.19
2018-10-05T03:21:31.397Z,1016.13
2018-10-05T03:22:31.413Z,1016.15
2018-10-05T03:23:31.433Z,1016.12
2018-10-05T03:24:31.449Z,1016.13
2018-10-05T03:25:31.468Z,1016.12
2018-10-05T03:26:31.485Z,1016.09
2018-10-05T03:27:31.503Z,1016.07
2018-10-05T03:28:31.523Z,1016.03
2018-10-05T03:29:31.538Z,1016.04
2018-10-05T03:30:31.556Z,1015.99
2018-10-05T03:31:31.574Z,1016.00
2018-10-05T03:32:31.592Z,1016.00
2018-10-05T03:33:31.609Z,1016.00
2018-10-05T03:34:31.626Z,1015.99
2018-10-05T03:35:31.644Z,1015.98
2018-10-05T03:36:31.662Z,1016.00
2018-10-05T03:37:31.679Z,1016.01
2018-10-05T03:38:31.699Z,1015.98
2018-10-05T03:39:31.715Z,1015.92
2018-10-05T03:40:31.736Z,1015.95
2018-10-05T03:41:31.751Z,1015.95
2018-10-05T03:42:31.768Z,1015.92
2018-10-05T03:43:31.790Z,1015.92
2018-10-05T03:44:31.805Z,1015.95
2018-10-05T03:45:31.821Z,1015.91
2018-10-05T03:46:31.839Z,1015.89
2018-10-05T03:47:31.856Z,1015.93
2018-10-05T03:48:31.874Z,1015.90
2018-10-05T03:49:31.892Z,1015.89
2018-10-05T03:50:31.912Z,1015.87
2018-10-05T03:51:31.928Z,1015.91
2018-10-05T03:52:31.945Z,1015.92
2018-10-05T03:53:31.963Z,1015.92
2018-10-05T03:54:31.980Z,1015.91
2018-10-05T03:55:31.997Z,1015.94
2018-10-05T03:56:32.016Z,1015.93
2018-10-05T03:57:32.033Z,1015.89
2018-10-05T03:58:32.050Z,1015.89
2018-10-05T03:59:32.068Z,1015.89
2018-10-05T04:00:32.086Z,1015.87
2018-10-05T04:01:32.105Z,1015.89
2018-10-05T04:02:32.126Z,1015.88
2018-10-05T04:03:32.138Z,1015.87
2018-10-05T04:04:32.156Z,1015.85
2018-10-05T04:05:32.176Z,1015.86
2018-10-05T04:06:32.191Z,1015.87
2018-10-05T04:07:32.208Z,1015.84
2018-10-05T04:08:32.234Z,1015.85
2018-10-05T04:09:32.245Z,1015.82
2018-10-05T04:10:32.261Z,1015.80
2018-10-05T04:11:32.280Z,1015.80
2018-10-05T04:12:32.300Z,1015.85
2018-10-05T04:13:32.316Z,1015.80
2018-10-05T04:14:32.333Z,1015.79
2018-10-05T04:15:32.349Z,1015.79
2018-10-05T04:16:32.669Z,1015.77
2018-10-05T04:17:32.386Z,1015.79
2018-10-05T04:18:32.403Z,1015.80
2018-10-05T04:19:32.420Z,1015.76
2018-10-05T04:20:32.438Z,1015.76
2018-10-05T04:21:32.474Z,1015.75
2018-10-05T04:22:32.472Z,1015.76
2018-10-05T04:23:32.490Z,1015.76
2018-10-05T04:24:32.508Z,1015.74
2018-10-05T04:25:32.526Z,1015.77
2018-10-05T04:26:32.543Z,1015.75
2018-10-05T04:27:32.561Z,1015.70
2018-10-05T04:28:32.579Z,1015.75
2018-10-05T04:29:32.596Z,1015.75
2018-10-05T04:30:32.613Z,1015.73
2018-10-05T04:31:32.631Z,1015.71
2018-10-05T04:32:32.652Z,1015.69
2018-10-05T04:33:32.670Z,1015.68
2018-10-05T04:34:32.684Z,1015.69
2018-10-05T04:35:32.730Z,1015.68
2018-10-05T04:36:32.720Z,1015.68
2018-10-05T04:37:32.738Z,1015.67
2018-10-05T04:38:32.756Z,1015.65
2018-10-05T04:39:32.771Z,1015.66
2018-10-05T04:40:32.789Z,1015.64
2018-10-05T04:41:32.810Z,1015.65
2018-10-05T04:42:32.824Z,1015.65
2018-10-05T04:43:32.842Z,1015.66
2018-10-05T04:44:32.861Z,1015.67
2018-10-05T04:45:32.877Z,1015.59
2018-10-05T04:46:32.893Z,1015.58
2018-10-05T04:47:32.911Z,1015.59
2018-10-05T04:48:32.930Z,1015.61
2018-10-05T04:49:33.025Z,1015.57
2018-10-05T04:50:32.969Z,1015.61
2018-10-05T04:51:32.983Z,1015.57
2018-10-05T04:52:33.000Z,1015.58
2018-10-05T04:53:33.019Z,1015.60
2018-10-05T04:54:33.034Z,1015.58
2018-10-05T04:55:33.052Z,1015.57
2018-10-05T04:56:33.118Z,1015.58
2018-10-05T04:57:33.087Z,1015.60
2018-10-05T04:58:33.104Z,1015.55
2018-10-05T04:59:33.122Z,1015.56
2018-10-05T05:00:33.140Z,1015.58
2018-10-05T05:01:33.157Z,1015.57
2018-10-05T05:02:33.173Z,1015.58
2018-10-05T05:03:33.246Z,1015.58
2018-10-05T05:04:33.215Z,1015.56
2018-10-05T05:05:33.227Z,1015.52
2018-10-05T05:06:33.246Z,1015.54
2018-10-05T05:07:33.261Z,1015.51
2018-10-05T05:08:33.283Z,1015.51
2018-10-05T05:09:33.297Z,1015.53
2018-10-05T05:10:33.316Z,1015.46
2018-10-05T05:11:33.332Z,1015.47
2018-10-05T05:12:33.349Z,1015.50
2018-10-05T05:13:33.368Z,1015.50
2018-10-05T05:14:33.386Z,1015.50
2018-10-05T05:15:33.401Z,1015.48
2018-10-05T05:16:33.418Z,1015.51
2018-10-05T05:17:33.436Z,1015.53
2018-10-05T05:18:33.453Z,1015.53
2018-10-05T05:19:33.523Z,1015.50
2018-10-05T05:20:33.489Z,1015.50
2018-10-05T05:21:33.506Z,1015.53
2018-10-05T05:22:33.523Z,1015.51
2018-10-05T05:23:33.540Z,1015.50
2018-10-05T05:24:33.558Z,1015.50
2018-10-05T05:25:33.576Z,1015.49
2018-10-05T05:26:33.593Z,1015.50
2018-10-05T05:27:33.613Z,1015.48
2018-10-05T05:28:33.631Z,1015.50
2018-10-05T05:29:33.646Z,1015.47
2018-10-05T05:30:33.662Z,1015.49
2018-10-05T05:31:33.680Z,1015.49
2018-10-05T05:32:33.697Z,1015.52
2018-10-05T05:33:33.804Z,1015.52
2018-10-05T05:34:33.732Z,1015.52
2018-10-05T05:35:33.749Z,1015.48
2018-10-05T05:36:33.767Z,1015.50
2018-10-05T05:37:33.835Z,1015.52
2018-10-05T05:38:33.802Z,1015.49
2018-10-05T05:39:33.820Z,1015.48
2018-10-05T05:40:33.839Z,1015.50
2018-10-05T05:41:33.855Z,1015.49
2018-10-05T05:42:33.871Z,1015.47
2018-10-05T05:43:33.889Z,1015.43
2018-10-05T05:44:33.906Z,1015.47
2018-10-05T05:45:33.928Z,1015.51
2018-10-05T05:46:33.941Z,1015.44
2018-10-05T05:47:33.963Z,1015.46
2018-10-05T05:48:33.976Z,1015.48
2018-10-05T05:49:33.994Z,1015.48
2018-10-05T05:50:34.011Z,1015.45
2018-10-05T05:51:34.028Z,1015.48
2018-10-05T05:52:34.046Z,1015.45
2018-10-05T05:53:34.064Z,1015.47
2018-10-05T05:54:34.202Z,1015.47
2018-10-05T05:55:34.099Z,1015.46
2018-10-05T05:56:34.116Z,1015.49
2018-10-05T05:57:34.133Z,1015.45
2018-10-05T05:58:34.150Z,1015.45
2018-10-05T05:59:34.172Z,1015.44
2018-10-05T06:00:34.188Z,1015.41
2018-10-05T06:01:34.203Z,1015.41
2018-10-05T06:02:34.220Z,1015.45
2018-10-05T06:03:34.238Z,1015.44
2018-10-05T06:04:34.255Z,1015.47
2018-10-05T06:05:34.274Z,1015.43
2018-10-05T06:06:34.290Z,1015.42
2018-10-05T06:07:34.308Z,1015.41
2018-10-05T06:08:34.325Z,1015.41
2018-10-05T06:09:34.348Z,1015.45
2018-10-05T06:10:34.359Z,1015.42
2018-10-05T06:11:34.377Z,1015.42
2018-10-05T06:12:34.397Z,1015.43
2018-10-05T06:13:34.416Z,1015.43
2018-10-05T06:14:34.432Z,1015.41
2018-10-05T06:15:34.449Z,1015.40
2018-10-05T06:16:34.555Z,1015.43
2018-10-05T06:17:34.483Z,1015.44
2018-10-05T06:18:34.499Z,1015.44
2018-10-05T06:19:34.518Z,1015.43
2018-10-05T06:20:34.536Z,1015.38
2018-10-05T06:21:34.602Z,1015.36
2018-10-05T06:22:34.633Z,1015.42
2018-10-05T06:23:34.587Z,1015.39
2018-10-05T06:24:34.605Z,1015.43
2018-10-05T06:25:34.622Z,1015.40
2018-10-05T06:26:34.639Z,1015.43
2018-10-05T06:27:34.657Z,1015.44
2018-10-05T06:28:34.677Z,1015.40
2018-10-05T06:29:34.693Z,1015.39
2018-10-05T06:30:34.761Z,1015.40
2018-10-05T06:31:34.726Z,1015.40
2018-10-05T06:32:34.745Z,1015.40
2018-10-05T06:33:34.764Z,1015.43
2018-10-05T06:34:34.779Z,1015.43
2018-10-05T06:35:34.797Z,1015.44
2018-10-05T06:36:34.816Z,1015.47
2018-10-05T06:37:34.833Z,1015.45
2018-10-05T06:38:34.849Z,1015.41
2018-10-05T06:39:34.871Z,1015.48
2018-10-05T06:40:34.911Z,1015.47
2018-10-05T06:41:34.903Z,1015.48
2018-10-05T06:42:35.039Z,1015.49
2018-10-05T06:43:34.940Z,1015.51
2018-10-05T06:44:34.955Z,1015.52
2018-10-05T06:45:34.992Z,1015.54
2018-10-05T06:46:34.990Z,1015.53
2018-10-05T06:47:35.008Z,1015.51
2018-10-05T06:48:35.031Z,1015.49
2018-10-05T06:49:35.049Z,1015.51
2018-10-05T06:50:35.062Z,1015.51
2018-10-05T06:51:35.078Z,1015.48
2018-10-05T06:52:35.099Z,1015.52
2018-10-05T06:53:35.115Z,1015.49
2018-10-05T06:54:35.133Z,1015.54
2018-10-05T06:55:35.149Z,1015.53
2018-10-05T06:56:35.169Z,1015.56
2018-10-05T06:57:35.186Z,1015.60
2018-10-05T06:58:35.202Z,1015.55
2018-10-05T06:59:35.222Z,1015.54
2018-10-05T07:00:35.244Z,1015.52
2018-10-05T07:01:35.375Z,1015.49
2018-10-05T07:02:35.276Z,1015.55
2018-10-05T07:03:35.293Z,1015.51
2018-10-05T07:04:35.362Z,1015.50
2018-10-05T07:05:35.328Z,1015.53
2018-10-05T07:06:35.345Z,1015.52
2018-10-05T07:07:35.384Z,1015.51
2018-10-05T07:08:35.381Z,1015.52
2018-10-05T07:09:35.402Z,1015.56
2018-10-05T07:10:35.417Z,1015.57
2018-10-05T07:11:35.513Z,1015.58
2018-10-05T07:12:35.453Z,1015.54
2018-10-05T07:13:35.473Z,1015.60
2018-10-05T07:14:35.488Z,1015.61
2018-10-05T07:15:35.509Z,1015.55
2018-10-05T07:16:35.528Z,1015.55
2018-10-05T07:17:35.549Z,1015.54
2018-10-05T07:18:35.561Z,1015.51
2018-10-05T07:19:35.579Z,1015.47
2018-10-05T07:20:35.596Z,1015.47
2018-10-05T07:21:35.616Z,1015.44
2018-10-05T07:22:35.691Z,1015.42
2018-10-05T07:23:35.653Z,1015.37
2018-10-05T07:24:35.670Z,1015.44
2018-10-05T07:25:35.687Z,1015.40
2018-10-05T07:26:35.706Z,1015.41
2018-10-05T07:27:35.724Z,1015.39
2018-10-05T07:28:35.943Z,1015.40
2018-10-05T07:29:35.763Z,1015.44
2018-10-05T07:30:35.778Z,1015.36
2018-10-05T07:31:35.797Z,1015.38
2018-10-05T07:32:35.815Z,1015.35
2018-10-05T07:33:35.835Z,1015.34
2018-10-05T07:34:35.851Z,1015.32
2018-10-05T07:35:35.871Z,1015.32
2018-10-05T07:36:35.889Z,1015.32
2018-10-05T07:37:35.908Z,1015.32
2018-10-05T07:38:35.925Z,1015.38
2018-10-05T07:39:35.946Z,1015.36
2018-10-05T07:40:35.965Z,1015.36
2018-10-05T07:41:35.982Z,1015.35
2018-10-05T07:42:35.999Z,1015.39
2018-10-05T07:43:36.218Z,1015.36
2018-10-05T07:44:36.038Z,1015.36
2018-10-05T07:45:36.059Z,1015.33
2018-10-05T07:46:36.074Z,1015.35
2018-10-05T07:47:36.094Z,1015.35
2018-10-05T07:48:36.112Z,1015.34
2018-10-05T07:49:36.131Z,1015.37
2018-10-05T07:50:36.150Z,1015.35
2018-10-05T07:51:36.180Z,1015.29
2018-10-05T07:52:36.237Z,1015.31
2018-10-05T07:53:36.208Z,1015.28
2018-10-05T07:54:36.228Z,1015.31
2018-10-05T07:55:36.303Z,1015.27
2018-10-05T07:56:36.265Z,1015.26
2018-10-05T07:57:36.412Z,1015.27
2018-10-05T07:58:36.299Z,1015.26
2018-10-05T07:59:36.348Z,1015.30
2018-10-05T08:00:36.352Z,1015.30
2018-10-05T08:01:36.359Z,1015.32
2018-10-05T08:02:36.376Z,1015.29
2018-10-05T08:03:36.394Z,1015.28
2018-10-05T08:04:36.418Z,1015.31
2018-10-05T08:05:36.438Z,1015.32
2018-10-05T08:06:36.452Z,1015.29
2018-10-05T08:07:36.472Z,1015.27
2018-10-05T08:08:36.539Z,1015.29
2018-10-05T08:09:36.525Z,1015.29
2018-10-05T08:10:36.529Z,1015.27
2018-10-05T08:11:36.555Z,1015.28
2018-10-05T08:12:36.567Z,1015.26
2018-10-05T08:13:36.585Z,1015.24
2018-10-05T08:14:36.609Z,1015.24
2018-10-05T08:15:36.634Z,1015.29
2018-10-05T08:16:36.698Z,1015.26
2018-10-05T08:17:36.676Z,1015.23
2018-10-05T08:18:36.684Z,1015.24
2018-10-05T08:19:36.783Z,1015.27
2018-10-05T08:20:36.722Z,1015.29
2018-10-05T08:21:36.880Z,1015.22
2018-10-05T08:22:36.777Z,1015.20
2018-10-05T08:23:36.780Z,1015.18
2018-10-05T08:24:36.800Z,1015.15
2018-10-05T08:25:36.832Z,1015.20
2018-10-05T08:26:37.091Z,1015.19
2018-10-05T08:27:36.862Z,1015.18
2018-10-05T08:28:36.878Z,1015.22
2018-10-05T08:29:36.899Z,1015.22
2018-10-05T08:30:36.921Z,1015.21
2018-10-05T08:31:36.937Z,1015.23
2018-10-05T08:32:36.961Z,1015.20
2018-10-05T08:33:36.978Z,1015.20
2018-10-05T08:34:37.072Z,1015.22
2018-10-05T08:35:37.015Z,1015.24
2018-10-05T08:36:37.035Z,1015.13
2018-10-05T08:37:37.056Z,1015.13
2018-10-05T08:38:37.224Z,1015.12
2018-10-05T08:39:37.153Z,1015.15
2018-10-05T08:40:37.117Z,1015.11
2018-10-05T08:41:37.136Z,1015.10
2018-10-05T08:42:37.175Z,1015.13
2018-10-05T08:43:37.194Z,1015.07
2018-10-05T08:44:37.234Z,1015.06
2018-10-05T08:45:37.479Z,1015.10
2018-10-05T08:46:37.328Z,1015.05
2018-10-05T08:47:37.328Z,1015.08
2018-10-05T08:48:37.279Z,1015.07
2018-10-05T08:49:37.351Z,1015.07
2018-10-05T08:50:37.423Z,1015.08
2018-10-05T08:51:37.544Z,1015.05
2018-10-05T08:52:37.362Z,1015.08
2018-10-05T08:53:37.386Z,1015.06
2018-10-05T08:54:37.467Z,1015.04
2018-10-05T08:55:37.418Z,1015.02
2018-10-05T08:56:37.592Z,1014.99
2018-10-05T08:57:37.541Z,1015.00
2018-10-05T08:58:37.495Z,1014.99
2018-10-05T08:59:37.551Z,1015.00
2018-10-05T09:00:37.688Z,1015.00
2018-10-05T09:01:37.538Z,1014.99
2018-10-05T09:02:37.556Z,1015.00
2018-10-05T09:03:37.665Z,1014.92
2018-10-05T09:04:37.604Z,1014.94
2018-10-05T09:05:37.692Z,1014.91
2018-10-05T09:06:37.714Z,1014.96
2018-10-05T09:07:37.661Z,1014.91
2018-10-05T09:08:37.719Z,1014.88
2018-10-05T09:09:37.703Z,1014.91
2018-10-05T09:10:37.729Z,1014.89
2018-10-05T09:11:37.750Z,1014.89
2018-10-05T09:12:37.835Z,1014.88
2018-10-05T09:13:37.789Z,1014.89
2018-10-05T09:14:37.896Z,1014.87
2018-10-05T09:15:37.852Z,1014.87
2018-10-05T09:16:37.864Z,1014.87
2018-10-05T09:17:37.882Z,1014.82
2018-10-05T09:18:37.898Z,1014.83
2018-10-05T09:19:37.913Z,1014.83
2018-10-05T09:20:38.001Z,1014.80
2018-10-05T09:21:37.986Z,1014.79
2018-10-05T09:22:37.981Z,1014.87
2018-10-05T09:23:37.997Z,1014.84
2018-10-05T09:24:38.063Z,1014.83
2018-10-05T09:25:38.068Z,1014.81
2018-10-05T09:26:38.095Z,1014.84
2018-10-05T09:27:38.146Z,1014.82
2018-10-05T09:28:38.101Z,1014.80
2018-10-05T09:29:38.156Z,1014.80
2018-10-05T09:30:38.170Z,1014.75
2018-10-05T09:31:38.737Z,1014.72
2018-10-05T09:32:38.282Z,1014.74
2018-10-05T09:33:38.230Z,1014.69
2018-10-05T09:34:38.701Z,1014.69
2018-10-05T09:35:38.367Z,1014.69
2018-10-05T09:36:38.369Z,1014.67
2018-10-05T09:37:38.337Z,1014.68
2018-10-05T09:38:38.385Z,1014.69
2018-10-05T09:39:38.391Z,1014.68
2018-10-05T09:40:38.478Z,1014.63
2018-10-05T09:41:38.410Z,1014.60
2018-10-05T09:42:38.498Z,1014.53
2018-10-05T09:43:38.421Z,1014.59
2018-10-05T09:44:38.446Z,1014.56
2018-10-05T09:45:38.472Z,1014.56
2018-10-05T09:46:38.526Z,1014.52
2018-10-05T09:47:38.512Z,1014.48
2018-10-05T09:48:38.569Z,1014.46
2018-10-05T09:49:38.554Z,1014.46
2018-10-05T09:50:40.190Z,1014.41
2018-10-05T09:51:38.599Z,1014.39
2018-10-05T09:52:38.722Z,1014.37
2018-10-05T09:53:38.748Z,1014.40
2018-10-05T09:54:38.660Z,1014.37
2018-10-05T09:55:38.718Z,1014.36
2018-10-05T09:56:38.715Z,1014.34
2018-10-05T09:57:38.861Z,1014.30
2018-10-05T09:58:40.002Z,1014.29
2018-10-05T09:59:38.811Z,1014.26
2018-10-05T10:00:38.797Z,1014.28
2018-10-05T10:01:38.815Z,1014.26
2018-10-05T10:02:38.902Z,1014.19
2018-10-05T10:03:38.911Z,1014.16
2018-10-05T10:04:38.898Z,1014.21
2018-10-05T10:05:38.906Z,1014.17
2018-10-05T10:06:38.928Z,1014.15
2018-10-05T10:07:38.950Z,1014.13
2018-10-05T10:08:39.071Z,1014.11
2018-10-05T10:09:39.078Z,1014.04
2018-10-05T10:10:39.062Z,1014.09
2018-10-05T10:11:39.045Z,1014.08
2018-10-05T10:12:39.148Z,1014.02
2018-10-05T10:13:39.148Z,1014.05
2018-10-05T10:14:39.199Z,1014.05
2018-10-05T10:15:39.188Z,1014.01
2018-10-05T10:16:39.213Z,1013.98
2018-10-05T10:17:39.231Z,1013.98
2018-10-05T10:18:39.227Z,1013.97
2018-10-05T10:19:39.215Z,1013.93
2018-10-05T10:20:39.250Z,1013.93
2018-10-05T10:21:39.367Z,1013.95
2018-10-05T10:22:39.400Z,1013.90
2018-10-05T10:23:40.652Z,1013.88
2018-10-05T10:24:39.339Z,1013.92
2018-10-05T10:25:39.514Z,1013.90
2018-10-05T10:26:39.447Z,1013.95
2018-10-05T10:27:39.468Z,1013.94
2018-10-05T10:28:39.609Z,1013.96
2018-10-05T10:29:39.444Z,1013.95
2018-10-05T10:30:39.562Z,1013.91
2018-10-05T10:31:39.496Z,1013.96
2018-10-05T10:32:39.584Z,1013.96
2018-10-05T10:33:39.660Z,1013.92
2018-10-05T10:34:39.642Z,1013.96
2018-10-05T10:35:39.579Z,1013.88
2018-10-05T10:36:39.673Z,1013.89
2018-10-05T10:37:39.655Z,1013.83
2018-10-05T10:38:39.647Z,1013.87
2018-10-05T10:39:39.668Z,1013.85
2018-10-05T10:40:39.769Z,1013.80
2018-10-05T10:41:39.713Z,1013.81
2018-10-05T10:42:39.864Z,1013.80
2018-10-05T10:43:39.765Z,1013.75
2018-10-05T10:44:39.786Z,1013.74
2018-10-05T10:45:39.861Z,1013.71
2018-10-05T10:46:39.830Z,1013.69
2018-10-05T10:47:40.484Z,1013.66
2018-10-05T10:48:39.874Z,1013.66
2018-10-05T10:49:39.989Z,1013.64
2018-10-05T10:50:39.942Z,1013.64
2018-10-05T10:51:39.948Z,1013.63
2018-10-05T10:52:39.974Z,1013.59
2018-10-05T10:53:40.023Z,1013.54
2018-10-05T10:54:40.014Z,1013.57
2018-10-05T10:55:40.052Z,1013.55
2018-10-05T10:56:40.223Z,1013.53
2018-10-05T10:57:40.197Z,1013.55
2018-10-05T10:58:40.105Z,1013.52
2018-10-05T10:59:40.130Z,1013.51
2018-10-05T11:00:40.217Z,1013.47
2018-10-05T11:01:40.176Z,1013.50
2018-10-05T11:02:40.195Z,1013.51
2018-10-05T11:03:40.223Z,1013.43
2018-10-05T11:04:40.309Z,1013.42
2018-10-05T11:05:40.266Z,1013.45
2018-10-05T11:06:40.291Z,1013.41
2018-10-05T11:07:40.312Z,1013.35
2018-10-05T11:08:40.354Z,1013.34
2018-10-05T11:09:40.374Z,1013.35
2018-10-05T11:10:40.442Z,1013.28
2018-10-05T11:11:40.404Z,1013.33
2018-10-05T11:12:40.457Z,1013.31
2018-10-05T11:13:40.470Z,1013.29
2018-10-05T11:14:40.478Z,1013.32
2018-10-05T11:15:40.503Z,1013.34
2018-10-05T11:16:40.522Z,1013.30
2018-10-05T11:17:40.550Z,1013.26
2018-10-05T11:18:40.568Z,1013.29
2018-10-05T11:19:40.591Z,1013.28
2018-10-05T11:20:40.620Z,1013.23
2018-10-05T11:21:40.643Z,1013.24
2018-10-05T11:22:40.668Z,1013.22
2018-10-05T11:23:40.688Z,1013.18
2018-10-05T11:24:40.797Z,1013.21
2018-10-05T11:25:40.795Z,1013.17
2018-10-05T11:26:40.757Z,1013.15
2018-10-05T11:27:40.781Z,1013.13
2018-10-05T11:28:40.813Z,1013.12
2018-10-05T11:29:40.937Z,1013.09
2018-10-05T11:30:40.851Z,1013.07
2018-10-05T11:31:40.992Z,1013.01
2018-10-05T11:32:40.941Z,1012.97
2018-10-05T11:33:40.919Z,1012.91
2018-10-05T11:34:40.994Z,1012.90
2018-10-05T11:35:40.969Z,1012.86
2018-10-05T11:36:40.992Z,1012.86
2018-10-05T11:37:41.018Z,1012.83
2018-10-05T11:38:41.037Z,1012.82
2018-10-05T11:39:41.163Z,1012.80
2018-10-05T11:40:41.116Z,1012.78
2018-10-05T11:41:41.106Z,1012.73
2018-10-05T11:42:41.131Z,1012.68
2018-10-05T11:43:41.159Z,1012.68
2018-10-05T11:44:41.179Z,1012.67
2018-10-05T11:45:41.203Z,1012.67
2018-10-05T11:46:41.226Z,1012.62
2018-10-05T11:47:41.247Z,1012.63
2018-10-05T11:48:41.275Z,1012.60
2018-10-05T11:49:41.295Z,1012.59
2018-10-05T11:50:41.330Z,1012.57
2018-10-05T11:51:41.343Z,1012.58
2018-10-05T11:52:41.366Z,1012.54
2018-10-05T11:53:41.391Z,1012.54
2018-10-05T11:54:41.414Z,1012.53
2018-10-05T11:55:41.436Z,1012.50
2018-10-05T11:56:41.466Z,1012.48
2018-10-05T11:57:41.491Z,1012.43
2018-10-05T11:58:41.508Z,1012.43
2018-10-05T11:59:41.541Z,1012.41
2018-10-05T12:00:41.560Z,1012.46
2018-10-05T12:01:41.582Z,1012.43
2018-10-05T12:02:41.702Z,1012.36
2018-10-05T12:03:41.628Z,1012.34
2018-10-05T12:04:41.652Z,1012.36
2018-10-05T12:05:41.688Z,1012.34